Time;durP1;ratioP1;P1;durP2;ratioP2;P2;SDS_P1;SDS_P2;PMS_P1;PMS_P2;Temp;Humidity;BMP_temperature;BMP_pressure;BME280_temperature;BME280_humidity;BME280_pressure;Samples;Min_cycle;Max_cycle;Signal;HPM_P1;HPM_P2
2023/09/05 00:00:35;;;;;;;11.85;10.10;;;14.90;99.90;;;;;;5070664;28;20500;-71
2023/09/05 00:03:01;;;;;;;15.70;11.50;;;14.90;99.90;;;;;;5090596;28;20074;-71
2023/09/05 00:05:27;;;;;;;13.57;10.10;;;14.90;99.90;;;;;;5074103;28;20044;-71
2023/09/05 00:07:53;;;;;;;13.20;10.90;;;14.80;99.90;;;;;;5072821;28;20048;-71
2023/09/05 00:10:18;;;;;;;15.23;11.70;;;14.80;99.90;;;;;;5074749;28;20051;-71
2023/09/05 00:12:44;;;;;;;13.25;11.05;;;14.80;99.90;;;;;;5074441;28;20090;-71
2023/09/05 00:15:14;;;;;;;12.90;10.98;;;14.70;99.90;;;;;;5073348;28;20479;-71
2023/09/05 00:17:41;;;;;;;14.77;11.25;;;14.70;99.90;;;;;;5074382;28;20069;-71
2023/09/05 00:20:08;;;;;;;15.00;11.40;;;14.70;99.90;;;;;;5091984;28;20105;-71
2023/09/05 00:22:34;;;;;;;15.73;10.98;;;14.80;99.90;;;;;;5083770;28;20093;-70
2023/09/05 00:25:00;;;;;;;14.35;11.10;;;14.70;99.90;;;;;;5092191;28;20047;-71
2023/09/05 00:27:26;;;;;;;14.43;10.90;;;14.70;99.90;;;;;;5074341;28;20040;-71
2023/09/05 00:29:51;;;;;;;14.60;11.43;;;14.70;99.90;;;;;;5073415;28;20483;-71
2023/09/05 00:32:18;;;;;;;14.90;11.75;;;14.70;99.90;;;;;;5074511;28;20189;-71
2023/09/05 00:34:44;;;;;;;17.50;11.40;;;14.70;99.90;;;;;;5074425;28;20115;-71
2023/09/05 00:37:10;;;;;;;15.45;12.00;;;14.70;99.90;;;;;;5091076;28;20543;-71
2023/09/05 00:39:40;;;;;;;13.63;11.65;;;14.60;99.90;;;;;;5073808;28;20047;-71
2023/09/05 00:42:10;;;;;;;14.70;11.93;;;14.60;99.90;;;;;;5092058;28;20076;-71
2023/09/05 00:44:36;;;;;;;14.50;12.13;;;14.60;99.90;;;;;;5091353;28;20518;-71
2023/09/05 00:47:04;;;;;;;13.27;11.00;;;14.60;99.90;;;;;;5073559;28;20048;-71
2023/09/05 00:49:38;;;;;;;14.02;11.98;;;14.60;99.90;;;;;;5073981;28;20052;-71
2023/09/05 00:52:05;;;;;;;14.10;11.13;;;14.60;99.90;;;;;;5074296;28;20071;-71
2023/09/05 00:54:32;;;;;;;14.32;11.50;;;14.50;99.90;;;;;;5092159;28;20467;-71
2023/09/05 00:56:58;;;;;;;13.02;10.85;;;14.50;99.90;;;;;;5091475;28;20032;-71
2023/09/05 00:59:24;;;;;;;13.38;11.80;;;14.50;99.90;;;;;;5095870;28;20040;-71
2023/09/05 01:01:50;;;;;;;13.02;10.98;;;14.50;99.90;;;;;;5077191;28;20052;-71
2023/09/05 01:04:17;;;;;;;14.07;11.32;;;14.50;99.90;;;;;;5076631;28;20048;-71
2023/09/05 01:07:07;;;;;;;15.65;12.35;;;14.50;99.90;;;;;;5076747;28;20040;-71
2023/09/05 01:09:53;;;;;;;15.85;11.88;;;14.50;99.90;;;;;;5077525;28;20492;-72
2023/09/05 01:12:20;;;;;;;14.40;12.18;;;14.50;99.90;;;;;;5077042;28;20055;-71
2023/09/05 01:14:45;;;;;;;15.75;12.40;;;14.60;99.90;;;;;;5095614;28;20043;-71
2023/09/05 01:17:11;;;;;;;16.63;12.68;;;14.50;99.90;;;;;;5095193;28;20047;-71
2023/09/05 01:19:40;;;;;;;15.63;12.05;;;14.50;99.90;;;;;;5094726;28;20505;-71
2023/09/05 01:22:15;;;;;;;16.33;12.30;;;14.40;99.90;;;;;;5076624;28;20048;-71
2023/09/05 01:24:41;;;;;;;13.82;11.82;;;14.40;99.90;;;;;;5076976;28;20048;-71
2023/09/05 01:27:17;;;;;;;15.23;11.68;;;14.40;99.90;;;;;;5094801;28;20331;-71
2023/09/05 01:29:44;;;;;;;15.43;11.65;;;14.40;99.90;;;;;;5076835;28;20422;-71
2023/09/05 01:32:10;;;;;;;14.20;12.10;;;14.40;99.90;;;;;;5076310;28;20048;-71
2023/09/05 01:34:36;;;;;;;14.60;11.45;;;14.40;99.90;;;;;;5095402;28;20467;-71
2023/09/05 01:37:02;;;;;;;14.98;12.05;;;14.40;99.90;;;;;;5076617;28;20040;-71
2023/09/05 01:39:27;;;;;;;16.60;12.60;;;14.30;99.90;;;;;;5094239;28;20059;-71
2023/09/05 01:41:53;;;;;;;15.70;12.85;;;14.30;99.90;;;;;;5094958;28;20044;-71
2023/09/05 01:44:19;;;;;;;14.40;11.77;;;14.30;99.90;;;;;;5094887;28;20065;-71
2023/09/05 01:46:45;;;;;;;14.45;12.02;;;14.30;99.90;;;;;;5094033;28;20554;-71
2023/09/05 01:49:11;;;;;;;15.00;11.85;;;14.30;99.90;;;;;;5094648;28;20047;-71
2023/09/05 01:51:37;;;;;;;14.73;11.98;;;14.40;99.90;;;;;;5095095;28;20464;-71
2023/09/05 01:54:03;;;;;;;15.77;11.93;;;14.30;99.90;;;;;;5093784;28;20072;-71
2023/09/05 01:56:28;;;;;;;14.75;11.27;;;14.30;99.90;;;;;;5094477;28;20051;-71
2023/09/05 01:58:54;;;;;;;18.10;12.25;;;14.30;99.90;;;;;;5076147;28;20040;-71
2023/09/05 02:01:20;;;;;;;15.98;11.95;;;14.30;99.90;;;;;;5093952;28;20052;-71
2023/09/05 02:03:46;;;;;;;15.00;12.43;;;14.20;99.90;;;;;;5094663;28;20675;-71
2023/09/05 02:06:13;;;;;;;17.90;12.88;;;14.30;99.90;;;;;;5094229;28;20032;-71
2023/09/05 02:08:41;;;;;;;15.40;11.80;;;14.20;99.90;;;;;;5074980;28;20577;-71
2023/09/05 02:11:10;;;;;;;13.77;11.10;;;14.20;99.90;;;;;;5076050;28;20505;-71
2023/09/05 02:13:36;;;;;;;15.20;12.02;;;14.20;99.90;;;;;;5094567;28;20044;-71
2023/09/05 02:16:02;;;;;;;14.45;11.13;;;14.20;99.90;;;;;;5074652;28;20055;-71
2023/09/05 02:18:27;;;;;;;15.05;11.68;;;14.20;99.90;;;;;;5094230;28;20047;-71
2023/09/05 02:21:01;;;;;;;15.50;12.27;;;14.10;99.90;;;;;;5076066;28;20059;-71
2023/09/05 02:23:27;;;;;;;15.13;11.20;;;14.10;99.90;;;;;;5076059;28;20054;-71
2023/09/05 02:26:01;;;;;;;16.40;10.75;;;14.10;99.90;;;;;;5093659;28;20044;-71
2023/09/05 02:28:28;;;;;;;15.27;10.88;;;14.10;99.90;;;;;;5075517;28;20406;-71
2023/09/05 02:30:54;;;;;;;14.85;11.43;;;14.10;99.90;;;;;;5075251;28;20056;-71
2023/09/05 02:33:20;;;;;;;14.45;11.63;;;14.00;99.90;;;;;;5094169;28;20048;-71
2023/09/05 02:35:47;;;;;;;13.55;11.45;;;14.00;99.90;;;;;;5092719;28;20048;-71
2023/09/05 02:38:15;;;;;;;13.60;10.98;;;15.00;99.90;;;;;;5075483;28;20040;-71
2023/09/05 02:40:45;;;;;;;14.63;10.95;;;14.00;99.90;;;;;;5093664;28;20085;-71
2023/09/05 02:43:11;;;;;;;16.15;10.52;;;14.00;99.90;;;;;;5093219;28;20097;-71
2023/09/05 02:45:37;;;;;;;16.17;11.15;;;14.00;99.90;;;;;;5075666;28;20072;-71
2023/09/05 02:48:03;;;;;;;14.40;11.05;;;13.90;99.90;;;;;;5075264;28;20072;-71
2023/09/05 02:50:29;;;;;;;16.17;11.25;;;13.90;99.90;;;;;;5092971;28;20040;-71
2023/09/05 02:52:54;;;;;;;14.48;11.55;;;13.90;99.90;;;;;;5075449;28;20074;-71
2023/09/05 02:55:20;;;;;;;12.88;10.63;;;13.90;99.90;;;;;;5075375;28;20127;-70
2023/09/05 02:57:46;;;;;;;14.02;10.32;;;13.80;99.90;;;;;;5092740;28;20088;-71
2023/09/05 03:00:12;;;;;;;14.73;10.48;;;13.80;99.90;;;;;;5093707;28;20052;-71
2023/09/05 03:02:40;;;;;;;14.02;10.70;;;13.80;99.90;;;;;;5071263;28;20048;-71
2023/09/05 03:05:09;;;;;;;13.63;10.98;;;13.80;99.90;;;;;;5071661;28;20511;-71
2023/09/05 03:07:35;;;;;;;13.73;10.68;;;13.80;99.90;;;;;;5071716;28;20036;-71
2023/09/05 03:10:02;;;;;;;15.95;10.65;;;13.80;99.90;;;;;;5071494;28;20056;-71
2023/09/05 03:12:27;;;;;;;16.08;11.43;;;13.70;99.90;;;;;;5072186;28;20117;-71
2023/09/05 03:14:53;;;;;;;13.07;11.05;;;13.70;99.90;;;;;;5072986;28;20080;-71
2023/09/05 03:17:18;;;;;;;14.45;10.43;;;13.70;99.90;;;;;;5072179;28;20147;-71
2023/09/05 03:19:44;;;;;;;14.15;10.70;;;13.70;99.90;;;;;;5071191;28;20052;-71
2023/09/05 03:22:10;;;;;;;14.40;11.55;;;13.70;99.90;;;;;;5069445;28;20044;-71
2023/09/05 03:24:35;;;;;;;14.00;11.35;;;13.70;99.90;;;;;;5070748;28;20071;-70
2023/09/05 03:27:03;;;;;;;19.50;11.93;;;13.70;99.90;;;;;;5071228;28;20476;-70
2023/09/05 03:29:28;;;;;;;14.55;11.45;;;13.70;99.90;;;;;;5071199;28;20507;-71
2023/09/05 03:31:55;;;;;;;13.65;11.38;;;13.70;99.90;;;;;;5070414;28;20131;-70
2023/09/05 03:34:20;;;;;;;16.45;12.45;;;13.70;99.90;;;;;;5072940;28;20549;-70
2023/09/05 03:36:47;;;;;;;15.02;11.38;;;13.70;99.90;;;;;;5072405;28;20040;-70
2023/09/05 03:39:13;;;;;;;15.95;11.70;;;13.60;99.90;;;;;;5072006;28;20040;-71
2023/09/05 03:41:39;;;;;;;14.25;11.48;;;13.60;99.90;;;;;;5072926;28;20093;-70
2023/09/05 03:44:05;;;;;;;13.82;11.35;;;13.80;99.90;;;;;;5072515;28;20068;-71
2023/09/05 03:46:30;;;;;;;14.88;11.45;;;13.60;99.90;;;;;;5070778;28;20056;-70
2023/09/05 03:48:57;;;;;;;12.95;11.00;;;13.60;99.90;;;;;;5071038;28;20052;-70
2023/09/05 03:51:23;;;;;;;13.98;11.68;;;13.60;99.90;;;;;;5071899;28;20052;-71
2023/09/05 03:53:49;;;;;;;14.57;11.88;;;13.60;99.90;;;;;;5070256;28;20048;-71
2023/09/05 03:56:15;;;;;;;15.13;11.60;;;13.60;99.90;;;;;;5072697;28;20083;-71
2023/09/05 03:58:41;;;;;;;15.02;11.90;;;13.60;99.90;;;;;;5071359;28;20503;-71
2023/09/05 04:01:16;;;;;;;14.80;11.20;;;13.60;99.90;;;;;;5064660;28;20410;-71
2023/09/05 04:03:42;;;;;;;15.48;11.10;;;13.60;99.90;;;;;;5074624;28;20075;-70
2023/09/05 04:06:08;;;;;;;13.48;11.07;;;13.50;99.90;;;;;;5092408;28;20472;-71
2023/09/05 04:08:34;;;;;;;14.80;11.13;;;13.50;99.90;;;;;;5091352;28;20039;-71
2023/09/05 04:11:01;;;;;;;14.55;11.75;;;13.50;99.90;;;;;;5074039;28;20111;-71
2023/09/05 04:13:27;;;;;;;16.27;11.23;;;13.40;99.90;;;;;;5092718;28;20032;-71
2023/09/05 04:15:53;;;;;;;14.68;11.35;;;13.40;99.90;;;;;;5091345;28;20041;-71
2023/09/05 04:18:19;;;;;;;14.48;11.15;;;13.40;99.90;;;;;;5074172;28;20391;-71
2023/09/05 04:20:44;;;;;;;17.40;11.98;;;13.40;99.90;;;;;;5073645;28;20052;-71
2023/09/05 04:23:13;;;;;;;16.20;12.50;;;13.40;99.90;;;;;;5073894;28;20056;-70
2023/09/05 04:25:40;;;;;;;16.85;12.20;;;13.60;99.90;;;;;;5092562;28;20048;-71
2023/09/05 04:28:09;;;;;;;15.98;11.70;;;13.40;99.90;;;;;;5073201;28;20945;-71
2023/09/05 04:30:35;;;;;;;16.23;12.13;;;13.40;99.90;;;;;;5074210;28;20058;-71
2023/09/05 04:33:03;;;;;;;16.92;12.77;;;13.30;99.90;;;;;;5094819;28;20040;-71
2023/09/05 04:35:29;;;;;;;18.40;11.95;;;13.40;99.90;;;;;;5095278;28;20384;-71
2023/09/05 04:37:55;;;;;;;15.52;12.32;;;13.40;99.90;;;;;;5061825;28;20075;-71
2023/09/05 04:40:21;;;;;;;16.92;12.52;;;13.40;99.90;;;;;;5057828;28;20075;-71
2023/09/05 04:42:46;;;;;;;15.98;12.63;;;13.40;99.90;;;;;;5058351;28;20166;-71
2023/09/05 04:45:12;;;;;;;17.88;12.25;;;13.40;99.90;;;;;;5078053;28;20048;-71
2023/09/05 04:47:40;;;;;;;17.33;11.75;;;13.40;99.90;;;;;;5077380;28;20044;-71
2023/09/05 04:50:10;;;;;;;14.82;12.05;;;13.40;99.90;;;;;;5076649;28;20047;-71
2023/09/05 04:52:35;;;;;;;15.48;12.07;;;13.40;99.90;;;;;;5077584;28;20047;-71
2023/09/05 04:55:01;;;;;;;15.80;12.27;;;13.30;99.90;;;;;;5095754;28;20036;-71
2023/09/05 04:57:29;;;;;;;16.45;12.23;;;13.40;99.90;;;;;;5095124;28;20507;-70
2023/09/05 04:59:59;;;;;;;16.60;12.45;;;13.40;99.90;;;;;;5076309;28;20051;-71
2023/09/05 05:02:26;;;;;;;16.02;12.48;;;13.30;99.90;;;;;;5077387;28;20549;-72
2023/09/05 05:04:52;;;;;;;17.13;12.75;;;13.30;99.90;;;;;;5093975;28;20061;-72
2023/09/05 05:07:18;;;;;;;17.63;12.52;;;13.30;99.90;;;;;;5077617;28;20087;-72
2023/09/05 05:09:46;;;;;;;16.90;12.45;;;13.30;99.90;;;;;;5094899;28;20084;-71
2023/09/05 05:12:11;;;;;;;15.18;12.52;;;13.30;99.90;;;;;;5095533;28;20115;-71
2023/09/05 05:14:37;;;;;;;17.45;12.73;;;13.30;99.90;;;;;;5076446;28;20198;-72
2023/09/05 05:17:03;;;;;;;16.77;12.40;;;13.30;99.90;;;;;;5063683;28;20477;-74
2023/09/05 05:19:31;;;;;;;16.50;11.80;;;13.30;99.90;;;;;;5072130;28;20052;-76
2023/09/05 05:21:56;;;;;;;16.77;12.65;;;13.30;99.90;;;;;;5039867;28;20123;-71
2023/09/05 05:24:22;;;;;;;19.13;12.45;;;13.30;99.90;;;;;;5074371;28;20053;-71
2023/09/05 05:26:48;;;;;;;17.98;12.90;;;13.20;99.90;;;;;;5075830;28;20048;-71
2023/09/05 05:29:14;;;;;;;16.08;12.52;;;13.30;99.90;;;;;;5095391;28;20070;-74
2023/09/05 05:31:40;;;;;;;15.75;12.32;;;13.30;99.90;;;;;;5068662;28;20491;-75
2023/09/05 05:34:06;;;;;;;15.95;12.13;;;13.30;99.90;;;;;;5067069;28;20127;-77
2023/09/05 05:36:32;;;;;;;17.27;12.30;;;13.30;99.90;;;;;;5076510;28;20040;-76
2023/09/05 05:38:58;;;;;;;19.70;13.02;;;13.40;99.90;;;;;;5075290;28;20040;-75
2023/09/05 05:41:25;;;;;;;16.65;12.60;;;13.40;99.90;;;;;;5077465;28;20048;-78
2023/09/05 05:43:50;;;;;;;16.08;13.40;;;13.40;99.90;;;;;;5073144;28;20086;-76
2023/09/05 05:46:18;;;;;;;14.98;12.00;;;13.40;99.90;;;;;;5072216;28;20044;-75
2023/09/05 05:48:44;;;;;;;17.52;13.30;;;13.40;99.90;;;;;;5073547;28;20044;-71
2023/09/05 05:51:11;;;;;;;20.08;12.95;;;13.50;99.90;;;;;;5072916;28;20036;-72
2023/09/05 05:53:36;;;;;;;18.88;13.05;;;13.40;99.90;;;;;;5059591;28;20047;-75
2023/09/05 05:56:08;;;;;;;18.23;13.15;;;13.50;99.90;;;;;;5056332;28;20032;-73
2023/09/05 05:58:34;;;;;;;16.27;12.73;;;13.60;99.90;;;;;;5074129;28;20048;-79
2023/09/05 06:01:00;;;;;;;16.70;12.80;;;13.60;99.90;;;;;;5072053;28;20408;-77
2023/09/05 06:03:25;;;;;;;18.05;13.15;;;13.70;99.90;;;;;;5066880;28;20048;-74
2023/09/05 06:05:51;;;;;;;16.30;12.43;;;13.70;99.90;;;;;;5056083;28;20075;-71
2023/09/05 06:08:17;;;;;;;18.42;13.18;;;13.80;99.90;;;;;;5055787;28;20049;-71
2023/09/05 06:10:44;;;;;;;16.35;12.55;;;13.80;99.90;;;;;;5074220;28;20043;-72
2023/09/05 06:13:11;;;;;;;16.60;12.98;;;13.90;99.90;;;;;;5054477;28;20090;-71
2023/09/05 06:15:37;;;;;;;17.67;12.95;;;14.00;99.90;;;;;;5055635;28;20116;-71
2023/09/05 06:18:05;;;;;;;15.60;11.88;;;14.00;99.90;;;;;;5073641;28;20093;-72
2023/09/05 06:20:34;;;;;;;15.00;12.63;;;14.10;99.90;;;;;;5053840;28;20044;-72
2023/09/05 06:23:00;;;;;;;21.27;12.98;;;14.10;99.90;;;;;;5071525;28;20078;-72
2023/09/05 06:25:27;;;;;;;17.40;12.73;;;14.20;99.90;;;;;;5054021;28;20460;-72
2023/09/05 06:27:53;;;;;;;19.48;12.95;;;14.30;99.90;;;;;;5070955;28;20028;-71
2023/09/05 06:30:19;;;;;;;18.02;11.60;;;14.40;99.90;;;;;;5054059;28;20196;-72
2023/09/05 06:32:44;;;;;;;16.70;12.27;;;14.50;99.90;;;;;;5055989;28;20040;-72
2023/09/05 06:35:10;;;;;;;16.52;12.10;;;14.50;99.90;;;;;;5070406;28;20037;-72
2023/09/05 06:37:39;;;;;;;17.45;13.18;;;14.60;99.90;;;;;;5073588;28;20170;-73
2023/09/05 06:40:09;;;;;;;15.95;13.05;;;14.70;99.90;;;;;;5075097;28;20592;-72
2023/09/05 06:42:38;;;;;;;17.25;13.23;;;14.80;99.90;;;;;;5093093;28;20055;-72
2023/09/05 06:45:05;;;;;;;15.85;11.85;;;14.90;99.90;;;;;;5072898;28;20062;-72
2023/09/05 06:47:31;;;;;;;16.23;11.85;;;14.90;99.90;;;;;;5079569;28;20601;-72
2023/09/05 06:49:57;;;;;;;14.00;11.52;;;15.00;99.90;;;;;;5091953;28;20054;-72
2023/09/05 06:52:22;;;;;;;15.75;12.05;;;15.10;99.90;;;;;;5075194;28;20040;-72
2023/09/05 06:54:48;;;;;;;16.27;12.25;;;15.20;99.90;;;;;;5092688;28;20048;-72
2023/09/05 06:57:16;;;;;;;16.92;11.88;;;15.30;99.90;;;;;;5074249;28;20074;-71
2023/09/05 06:59:45;;;;;;;16.15;12.55;;;15.40;99.90;;;;;;5074643;28;20124;-71
2023/09/05 07:02:11;;;;;;;24.83;14.27;;;15.50;99.90;;;;;;5092764;28;20041;-72
2023/09/05 07:04:36;;;;;;;17.17;12.18;;;15.60;99.90;;;;;;5074488;28;20054;-71
2023/09/05 07:07:05;;;;;;;18.95;12.82;;;15.70;99.90;;;;;;5074601;28;20407;-71
2023/09/05 07:09:31;;;;;;;18.35;12.80;;;15.80;99.90;;;;;;5059851;28;20036;-71
2023/09/05 07:11:57;;;;;;;15.77;12.25;;;15.90;99.90;;;;;;5074171;28;20399;-72
2023/09/05 07:14:23;;;;;;;17.25;12.57;;;16.10;99.90;;;;;;5092872;28;20080;-72
2023/09/05 07:16:49;;;;;;;16.75;12.45;;;16.20;99.90;;;;;;5073134;28;20050;-72
2023/09/05 07:19:16;;;;;;;16.67;12.48;;;16.30;99.90;;;;;;5074022;28;20039;-73
2023/09/05 07:21:42;;;;;;;16.65;12.95;;;16.90;99.90;;;;;;5068871;28;20040;-72
2023/09/05 07:24:10;;;;;;;13.10;11.02;;;18.40;99.90;;;;;;5070674;28;20056;-73
2023/09/05 07:26:38;;;;;;;15.23;10.48;;;20.10;99.90;;;;;;5071541;28;20063;-73
2023/09/05 07:29:10;;;;;;;27.77;11.65;;;21.60;99.90;;;;;;5071239;28;20089;-73
2023/09/05 07:31:41;;;;;;;15.73;9.30;;;23.00;99.90;;;;;;5072350;28;20093;-73
2023/09/05 07:34:07;;;;;;;13.15;8.35;;;24.30;99.90;;;;;;5073262;28;20056;-73
2023/09/05 07:36:34;;;;;;;13.15;8.00;;;25.30;99.90;;;;;;5075311;28;20421;-72
2023/09/05 07:39:04;;;;;;;8.77;6.57;;;25.90;99.90;;;;;;5071490;28;20048;-72
2023/09/05 07:41:32;;;;;;;11.30;7.22;;;26.80;99.90;;;;;;5072951;28;20476;-72
2023/09/05 07:43:57;;;;;;;10.13;7.05;;;27.40;99.90;;;;;;5072452;28;20052;-71
2023/09/05 07:46:23;;;;;;;9.45;6.38;;;28.00;99.90;;;;;;5070636;28;20415;-72
2023/09/05 07:48:49;;;;;;;8.32;6.20;;;28.60;99.10;;;;;;5070922;28;20189;-71
2023/09/05 07:51:15;;;;;;;7.95;6.00;;;29.00;97.40;;;;;;5072354;28;20041;-73
2023/09/05 07:53:49;;;;;;;6.72;6.00;;;29.40;96.80;;;;;;5071831;28;20044;-74
2023/09/05 07:56:17;;;;;;;7.32;6.18;;;29.80;95.50;;;;;;5072515;28;20082;-73
2023/09/05 07:58:43;;;;;;;8.15;6.05;;;30.10;96.30;;;;;;5070653;28;20044;-71
2023/09/05 08:01:09;;;;;;;8.18;5.50;;;30.60;96.40;;;;;;5071436;28;20048;-70
2023/09/05 08:03:38;;;;;;;6.75;5.40;;;30.70;94.90;;;;;;5054463;28;20053;-72
2023/09/05 08:06:04;;;;;;;7.03;5.00;;;31.10;94.80;;;;;;5071575;28;20044;-71
2023/09/05 08:08:31;;;;;;;7.30;4.60;;;31.50;93.50;;;;;;5076554;28;20040;-71
2023/09/05 08:10:56;;;;;;;6.97;4.60;;;31.90;93.30;;;;;;5080330;28;20506;-72
2023/09/05 08:13:22;;;;;;;6.05;4.50;;;32.20;92.80;;;;;;5098508;28;20044;-70
2023/09/05 08:15:50;;;;;;;6.32;4.38;;;32.60;92.40;;;;;;5080578;28;20054;-70
2023/09/05 08:18:17;;;;;;;5.22;4.30;;;33.00;92.80;;;;;;5099083;28;20101;-70
2023/09/05 08:20:43;;;;;;;5.68;4.10;;;33.20;92.00;;;;;;5079981;28;20519;-70
2023/09/05 08:23:10;;;;;;;7.18;4.25;;;33.30;91.80;;;;;;5080467;28;20241;-71
2023/09/05 08:25:35;;;;;;;6.57;4.40;;;33.50;92.00;;;;;;5097484;28;20040;-71
2023/09/05 08:28:01;;;;;;;5.75;4.45;;;33.70;91.20;;;;;;5061110;28;20037;-71
2023/09/05 08:30:28;;;;;;;6.18;4.78;;;33.90;91.80;;;;;;5077938;28;20392;-70
2023/09/05 08:33:01;;;;;;;8.82;4.88;;;34.10;91.20;;;;;;5077854;28;20063;-71
2023/09/05 08:35:30;;;;;;;5.78;4.25;;;34.20;90.00;;;;;;5062926;28;20061;-72
2023/09/05 08:37:57;;;;;;;5.35;4.38;;;34.30;91.20;;;;;;5077977;28;20052;-71
2023/09/05 08:40:23;;;;;;;5.72;4.72;;;34.50;91.30;;;;;;5085108;28;20044;-70
2023/09/05 08:42:53;;;;;;;6.80;4.65;;;34.70;90.80;;;;;;5077560;28;20052;-72
2023/09/05 08:45:23;;;;;;;5.53;4.38;;;34.90;90.50;;;;;;5073866;28;20085;-76
2023/09/05 08:47:50;;;;;;;4.63;4.07;;;35.00;89.80;;;;;;5079223;28;20480;-77
2023/09/05 08:50:16;;;;;;;5.47;4.40;;;35.10;90.00;;;;;;5098269;28;20173;-75
2023/09/05 08:52:42;;;;;;;5.10;4.30;;;35.10;90.00;;;;;;5080405;28;20491;-71
2023/09/05 08:55:10;;;;;;;5.95;4.15;;;35.30;89.60;;;;;;5078338;28;20043;-73
2023/09/05 08:57:38;;;;;;;7.50;4.28;;;35.30;88.60;;;;;;5077087;28;20107;-75
2023/09/05 09:00:06;;;;;;;6.13;4.38;;;35.40;89.40;;;;;;5076561;28;20048;-73
2023/09/05 09:02:34;;;;;;;5.47;4.22;;;35.30;88.70;;;;;;5062943;28;20044;-71
2023/09/05 09:05:00;;;;;;;5.22;3.80;;;35.40;87.80;;;;;;5061715;28;20102;-72
2023/09/05 09:07:27;;;;;;;5.35;3.75;;;35.30;90.00;;;;;;5062020;28;20407;-71
2023/09/05 09:09:54;;;;;;;5.15;3.78;;;35.40;88.30;;;;;;5077474;28;20044;-71
2023/09/05 09:12:30;;;;;;;5.15;3.72;;;35.70;88.00;;;;;;5069848;28;20048;-74
2023/09/05 09:15:10;;;;;;;5.25;3.92;;;35.80;86.30;;;;;;5080128;28;20071;-73
2023/09/05 09:17:36;;;;;;;6.85;4.40;;;35.90;87.90;;;;;;5071465;28;20050;-71
2023/09/05 09:20:05;;;;;;;3.90;3.30;;;36.20;87.70;;;;;;5076644;28;20049;-72
2023/09/05 09:22:31;;;;;;;6.50;3.70;;;36.20;89.80;;;;;;5077014;28;20036;-73
2023/09/05 09:24:57;;;;;;;5.95;3.20;;;36.60;87.20;;;;;;5073173;28;20067;-73
2023/09/05 09:27:23;;;;;;;4.35;3.38;;;36.70;88.10;;;;;;5074622;28;20075;-73
2023/09/05 09:29:55;;;;;;;5.25;3.30;;;36.90;86.90;;;;;;5056279;28;20080;-73
2023/09/05 09:32:22;;;;;;;5.50;3.03;;;36.70;86.90;;;;;;5074228;28;20095;-73
2023/09/05 09:34:49;;;;;;;7.10;2.83;;;36.20;87.10;;;;;;5081495;28;20047;-74
2023/09/05 09:37:25;;;;;;;6.22;3.22;;;36.10;87.40;;;;;;5051251;28;20041;-74
2023/09/05 09:40:02;;;;;;;3.80;2.50;;;35.80;86.80;;;;;;5057278;28;20040;-75
2023/09/05 09:42:28;;;;;;;4.45;2.88;;;35.70;87.70;;;;;;5071825;28;20107;-75
2023/09/05 09:44:54;;;;;;;4.75;3.10;;;35.80;87.80;;;;;;5054904;28;20032;-75
2023/09/05 09:47:21;;;;;;;3.80;2.70;;;36.10;88.20;;;;;;5056924;28;20113;-74
2023/09/05 09:49:51;;;;;;;4.88;3.00;;;36.30;87.50;;;;;;5055816;28;20060;-75
2023/09/05 09:52:25;;;;;;;4.35;2.60;;;36.60;87.40;;;;;;5055393;28;20089;-74
2023/09/05 09:54:55;;;;;;;6.95;2.55;;;36.70;86.30;;;;;;5056749;28;20040;-72
2023/09/05 09:57:38;;;;;;;5.07;2.22;;;36.90;87.30;;;;;;5074927;28;20032;-73
2023/09/05 10:00:18;;;;;;;4.88;2.20;;;37.10;82.30;;;;;;5074320;28;20072;-72
2023/09/05 10:02:46;;;;;;;4.78;2.30;;;37.40;85.50;;;;;;5055447;28;20048;-73
2023/09/05 10:05:15;;;;;;;4.15;2.10;;;37.70;82.00;;;;;;5051070;28;20102;-73
2023/09/05 10:07:43;;;;;;;4.40;1.90;;;37.40;82.30;;;;;;5055333;28;20029;-76
2023/09/05 10:10:15;;;;;;;3.47;2.05;;;37.30;84.10;;;;;;5055447;28;20041;-74
2023/09/05 10:12:44;;;;;;;3.25;1.80;;;37.20;80.70;;;;;;5075978;28;20036;-73
2023/09/05 10:15:13;;;;;;;4.22;2.00;;;37.10;83.30;;;;;;5073163;28;20036;-73
2023/09/05 10:17:40;;;;;;;2.90;1.70;;;37.30;85.20;;;;;;5075831;28;20040;-76
2023/09/05 10:20:08;;;;;;;4.95;1.83;;;37.60;80.20;;;;;;5054484;28;20041;-76
2023/09/05 10:22:39;;;;;;;3.85;1.83;;;37.80;81.50;;;;;;5055079;28;20123;-75
2023/09/05 10:25:07;;;;;;;3.80;1.85;;;38.00;78.10;;;;;;5053657;28;20396;-77
2023/09/05 10:27:33;;;;;;;2.88;1.90;;;37.20;78.20;;;;;;5054207;28;20075;-74
2023/09/05 10:29:59;;;;;;;3.63;1.80;;;37.00;78.80;;;;;;5076375;28;20072;-72
2023/09/05 10:32:25;;;;;;;3.75;1.70;;;36.90;80.70;;;;;;5094856;28;20051;-75
2023/09/05 10:34:51;;;;;;;6.22;2.28;;;37.10;80.50;;;;;;5092625;28;20097;-74
2023/09/05 10:37:18;;;;;;;2.92;1.83;;;37.00;81.00;;;;;;5093569;28;20040;-75
2023/09/05 10:39:45;;;;;;;4.70;1.77;;;37.10;80.90;;;;;;5093217;28;20044;-74
2023/09/05 10:42:15;;;;;;;3.72;1.80;;;37.10;79.80;;;;;;5068692;28;20136;-74
2023/09/05 10:44:50;;;;;;;2.92;1.75;;;37.30;82.10;;;;;;5065497;28;20040;-74
2023/09/05 10:47:27;;;;;;;;;;;37.30;80.50;;;;;;5071907;28;20075;-74
2023/09/05 10:50:00;;;;;;;3.25;1.90;;;37.40;77.00;;;;;;5055396;28;19920;-74
2023/09/05 10:52:28;;;;;;;2.95;1.80;;;37.90;78.20;;;;;;5052684;28;20044;-73
2023/09/05 10:54:54;;;;;;;4.65;1.95;;;37.60;75.70;;;;;;5071312;28;20392;-71
2023/09/05 10:57:37;;;;;;;3.70;1.73;;;36.80;77.80;;;;;;5056659;28;20157;-72
2023/09/05 11:00:16;;;;;;;3.78;1.70;;;36.60;78.40;;;;;;5092683;28;20059;-72
2023/09/05 11:02:43;;;;;;;3.10;1.90;;;36.70;79.00;;;;;;5073980;28;20040;-79
2023/09/05 11:05:13;;;;;;;2.88;1.67;;;36.80;82.00;;;;;;5072734;28;20487;-74
2023/09/05 11:07:43;;;;;;;3.90;1.77;;;37.00;81.60;;;;;;5075326;28;20046;-75
2023/09/05 11:10:26;;;;;;;3.47;1.60;;;37.20;80.70;;;;;;5092122;28;20101;-75
2023/09/05 11:12:53;;;;;;;5.40;1.70;;;37.40;77.20;;;;;;5074889;28;20388;-78
2023/09/05 11:15:32;;;;;;;4.03;2.00;;;37.00;78.10;;;;;;5074558;28;20036;-72
2023/09/05 11:18:05;;;;;;;3.92;2.00;;;36.60;77.60;;;;;;5074824;28;20508;-74
2023/09/05 11:20:44;;;;;;;4.03;1.80;;;36.40;79.30;;;;;;5074909;28;20514;-74
2023/09/05 11:23:16;;;;;;;3.90;1.90;;;36.60;79.40;;;;;;5088148;28;20113;-74
2023/09/05 11:25:48;;;;;;;3.63;1.92;;;36.80;79.90;;;;;;5055390;28;20052;-75
2023/09/05 11:28:18;;;;;;;3.85;2.30;;;36.90;80.30;;;;;;5055496;28;20487;-79
2023/09/05 11:30:45;;;;;;;3.10;1.70;;;36.90;80.20;;;;;;5054384;28;20040;-74
2023/09/05 11:33:16;;;;;;;5.28;1.90;;;37.00;81.10;;;;;;5052227;28;20119;-77
2023/09/05 11:35:43;;;;;;;3.72;1.85;;;37.00;77.30;;;;;;5071355;28;20040;-73
2023/09/05 11:38:10;;;;;;;4.15;1.90;;;36.60;78.50;;;;;;5061259;28;20055;-74
2023/09/05 11:40:36;;;;;;;3.65;1.85;;;36.70;78.40;;;;;;5074698;28;20040;-73
2023/09/05 11:43:04;;;;;;;3.78;1.70;;;36.60;79.00;;;;;;5091725;28;20083;-73
2023/09/05 11:45:30;;;;;;;3.53;2.08;;;36.50;78.60;;;;;;5072850;28;20086;-75
2023/09/05 11:47:57;;;;;;;3.00;1.88;;;36.60;79.30;;;;;;5074074;28;20058;-74
2023/09/05 11:50:23;;;;;;;3.33;1.80;;;36.60;78.60;;;;;;5092875;28;20047;-77
2023/09/05 11:52:51;;;;;;;4.65;2.10;;;36.60;78.70;;;;;;5090675;28;20086;-72
2023/09/05 11:55:21;;;;;;;5.07;1.90;;;36.50;79.60;;;;;;5054211;28;20076;-74
2023/09/05 11:57:50;;;;;;;2.88;1.70;;;36.30;80.60;;;;;;5052616;28;20065;-74
2023/09/05 12:00:16;;;;;;;4.38;2.03;;;36.30;80.60;;;;;;5054479;28;20048;-77
2023/09/05 12:02:43;;;;;;;5.47;2.40;;;36.40;80.80;;;;;;5059634;28;20049;-75
2023/09/05 12:05:10;;;;;;;3.25;1.98;;;36.60;81.80;;;;;;5073368;28;20048;-79
2023/09/05 12:07:36;;;;;;;3.15;1.80;;;36.50;80.10;;;;;;5052400;28;20048;-76
2023/09/05 12:10:02;;;;;;;3.13;1.77;;;36.60;78.50;;;;;;5050982;28;20056;-75
2023/09/05 12:12:28;;;;;;;2.70;1.70;;;36.60;78.30;;;;;;5050379;28;20064;-75
2023/09/05 12:14:55;;;;;;;2.45;1.55;;;36.60;78.80;;;;;;5069502;28;20126;-75
2023/09/05 12:17:26;;;;;;;2.92;1.48;;;36.50;78.90;;;;;;5067485;28;20067;-73
2023/09/05 12:19:53;;;;;;;2.90;1.77;;;36.20;79.30;;;;;;5069802;28;20040;-77
2023/09/05 12:22:23;;;;;;;3.75;1.60;;;36.30;79.70;;;;;;5055003;28;20476;-74
2023/09/05 12:25:11;;;;;;;2.83;1.60;;;36.20;79.30;;;;;;5070746;28;20055;-75
2023/09/05 12:27:39;;;;;;;3.35;1.58;;;35.80;78.70;;;;;;5052715;28;20040;-76
2023/09/05 12:30:09;;;;;;;2.95;1.40;;;35.70;80.30;;;;;;5071091;28;20199;-75
2023/09/05 12:32:35;;;;;;;4.47;1.60;;;35.90;79.30;;;;;;5053539;28;20040;-76
2023/09/05 12:35:01;;;;;;;3.65;1.50;;;36.10;78.90;;;;;;5052400;28;20063;-75
2023/09/05 12:37:27;;;;;;;2.63;1.48;;;36.00;78.90;;;;;;5071368;28;20072;-75